Time;durP1;ratioP1;P1;durP2;ratioP2;P2;SDS_P1;SDS_P2;PMS_P1;PMS_P2;Temp;Humidity;BMP_temperature;BMP_pressure;BME280_temperature;BME280_humidity;BME280_pressure;Samples;Min_cycle;Max_cycle;Signal;HPM_P1;HPM_P2
2023/03/02 00:01:48;;;;;;;0.20;0.20;;;;;;;2.07;65.23;102681.91;5082755;28;20021;-81
2023/03/02 00:04:36;;;;;;;0.20;0.20;;;;;;;2.10;66.46;102688.13;5092532;28;20102;-82
2023/03/02 00:07:07;;;;;;;0.20;0.20;;;;;;;2.06;65.31;102680.97;5088661;28;20060;-81
2023/03/02 00:09:34;;;;;;;0.20;0.20;;;;;;;2.04;65.72;102687.84;5084101;28;20032;-82
2023/03/02 00:12:01;;;;;;;0.75;0.75;;;;;;;2.02;66.04;102688.59;5075154;28;20021;-82
2023/03/02 00:14:27;;;;;;;0.20;0.20;;;;;;;2.02;65.97;102686.91;5074948;28;20024;-83
2023/03/02 00:16:53;;;;;;;0.15;0.15;;;;;;;2.02;66.29;102691.22;5078318;28;20561;-82
2023/03/02 00:19:20;;;;;;;0.20;0.20;;;;;;;2.03;65.97;102687.78;5090063;28;20028;-83
2023/03/02 00:21:46;;;;;;;0.20;0.20;;;;;;;2.02;66.09;102680.75;5093840;28;20868;-83
2023/03/02 00:24:14;;;;;;;1.67;1.58;;;;;;;2.01;65.83;102677.28;5097441;28;20039;-83
2023/03/02 00:26:41;;;;;;;0.10;0.10;;;;;;;2.00;65.64;102669.38;5095819;28;20043;-83
2023/03/02 00:29:07;;;;;;;0.20;0.20;;;;;;;1.99;65.95;102672.78;5095941;28;20035;-80
2023/03/02 00:31:33;;;;;;;0.17;0.17;;;;;;;1.98;65.88;102671.91;5091176;28;20486;-80
2023/03/02 00:33:59;;;;;;;0.20;0.20;;;;;;;1.92;66.63;102662.06;5095144;28;20247;-82
2023/03/02 00:36:25;;;;;;;0.40;0.40;;;;;;;1.92;66.93;102669.03;5095776;28;20028;-82
2023/03/02 00:38:52;;;;;;;0.10;0.10;;;;;;;1.93;66.25;102663.84;5093782;28;20029;-82
2023/03/02 00:41:20;;;;;;;1.00;1.00;;;;;;;1.90;66.08;102668.94;5095666;28;20027;-82
2023/03/02 00:43:47;;;;;;;0.75;0.75;;;;;;;1.89;66.86;102666.25;5094450;28;20028;-83
2023/03/02 00:46:17;;;;;;;0.20;0.20;;;;;;;1.87;66.21;102668.81;5091484;28;20395;-83
2023/03/02 00:48:43;;;;;;;0.15;0.15;;;;;;;1.86;66.06;102663.53;5093518;28;20105;-84
2023/03/02 00:51:10;;;;;;;0.20;0.20;;;;;;;1.85;66.05;102660.00;5097297;28;20036;-82
2023/03/02 00:53:37;;;;;;;0.20;0.20;;;;;;;1.84;66.06;102658.19;5094768;28;20506;-82
2023/03/02 00:56:04;;;;;;;0.10;0.10;;;;;;;1.84;66.35;102652.97;5097216;28;20036;-82
2023/03/02 00:58:31;;;;;;;0.10;0.10;;;;;;;1.84;66.29;102657.31;5095930;28;20032;-84
2023/03/02 01:00:58;;;;;;;0.20;0.20;;;;;;;1.83;66.22;102661.63;5083211;28;20036;-82
2023/03/02 01:03:24;;;;;;;0.20;0.20;;;;;;;1.81;67.36;102658.06;5091837;28;20023;-82
2023/03/02 01:05:55;;;;;;;0.20;0.20;;;;;;;1.80;67.10;102664.13;5080592;28;20032;-82
2023/03/02 01:08:21;;;;;;;0.68;0.68;;;;;;;1.80;67.24;102666.72;5090071;28;20032;-82
2023/03/02 01:10:48;;;;;;;0.20;0.20;;;;;;;1.81;66.97;102662.38;5093640;28;20020;-82
2023/03/02 01:13:14;;;;;;;0.63;0.63;;;;;;;1.80;67.64;102666.72;5081886;28;20066;-82
2023/03/02 01:15:40;;;;;;;0.20;0.20;;;;;;;1.81;66.91;102657.16;5088812;28;20088;-82
2023/03/02 01:18:06;;;;;;;1.08;0.63;;;;;;;1.81;66.96;102662.38;5093653;28;20020;-82
2023/03/02 01:20:32;;;;;;;0.17;0.17;;;;;;;1.80;66.90;102658.91;5086760;28;20036;-82
2023/03/02 01:22:58;;;;;;;0.10;0.10;;;;;;;1.81;66.79;102658.06;5092146;28;20106;-82
2023/03/02 01:25:24;;;;;;;0.20;0.20;;;;;;;1.78;66.97;102663.16;5085062;28;20029;-80
2023/03/02 01:27:50;;;;;;;0.10;0.10;;;;;;;1.78;66.89;102660.53;5078054;28;20032;-81
2023/03/02 01:30:17;;;;;;;0.10;0.10;;;;;;;1.76;67.08;102659.59;5085500;28;20107;-81
2023/03/02 01:32:43;;;;;;;0.10;0.10;;;;;;;1.74;66.59;102662.09;5086181;28;20024;-81
2023/03/02 01:35:09;;;;;;;0.28;0.28;;;;;;;1.72;66.89;102662.88;5095198;28;20455;-81
2023/03/02 01:37:36;;;;;;;0.20;0.20;;;;;;;1.70;66.87;102664.53;5083774;28;20025;-83
2023/03/02 01:40:05;;;;;;;0.17;0.17;;;;;;;1.68;66.76;102674.88;5079543;28;20521;-83
2023/03/02 01:42:38;;;;;;;0.30;0.30;;;;;;;1.71;67.26;102666.34;5077637;28;20032;-81
2023/03/02 01:45:04;;;;;;;0.75;0.75;;;;;;;1.68;67.20;102666.16;5076338;28;20028;-82
2023/03/02 01:50:19;;;;;;;0.20;0.20;;;;;;;1.70;67.46;102664.53;5062980;28;20388;-83
2023/03/02 01:52:46;;;;;;;0.10;0.10;;;;;;;1.65;67.71;102661.69;5047780;28;20596;-82
2023/03/02 01:55:18;;;;;;;0.75;0.75;;;;;;;1.65;67.69;102658.22;5051045;28;20056;-82
2023/03/02 01:57:50;;;;;;;0.20;0.20;;;;;;;1.66;68.37;102662.59;5049517;28;20535;-81
2023/03/02 02:00:22;;;;;;;0.20;0.20;;;;;;;1.66;67.48;102652.13;5051464;28;20033;-82
2023/03/02 02:02:50;;;;;;;0.20;0.20;;;;;;;1.65;67.31;102639.91;5051874;28;20450;-82
2023/03/02 02:05:23;;;;;;;1.08;1.08;;;;;;;1.67;67.69;102646.09;5050802;28;20029;-83
2023/03/02 02:07:48;;;;;;;;;;;;;;;1.76;68.45;102646.53;5054535;28;20184;-83
2023/03/02 02:10:15;;;;;;;0.20;0.20;;;;;;;1.64;68.09;102644.22;5051432;28;19913;-81
2023/03/02 02:12:41;;;;;;;1.55;0.85;;;;;;;1.61;68.25;102633.66;5053729;28;20033;-83
2023/03/02 02:15:08;;;;;;;0.20;0.20;;;;;;;1.60;68.61;102631.84;5048832;28;20461;-83
2023/03/02 02:17:34;;;;;;;0.38;0.38;;;;;;;1.60;67.78;102643.19;5050121;28;20033;-82
2023/03/02 02:25:35;;;;;;;0.10;0.10;;;;;;;1.57;68.52;102636.94;5081254;28;20356;-84
2023/03/02 02:28:07;;;;;;;0.20;0.20;;;;;;;1.55;68.75;102638.59;5083111;28;20090;-83
2023/03/02 02:30:37;;;;;;;0.20;0.20;;;;;;;1.55;68.99;102634.25;5086171;28;20555;-85
2023/03/02 02:33:04;;;;;;;0.20;0.20;;;;;;;1.54;69.28;102627.22;5090318;28;20028;-85
2023/03/02 02:35:35;;;;;;;0.68;0.68;;;;;;;1.56;69.10;102624.72;5095820;28;20025;-84
2023/03/02 02:38:05;;;;;;;0.10;0.10;;;;;;;1.56;69.39;102609.91;5085733;28;20025;-83
2023/03/02 02:43:22;;;;;;;0.10;0.10;;;;;;;1.58;69.19;102613.50;5094225;27;20377;-82
2023/03/02 02:45:52;;;;;;;0.20;0.20;;;;;;;1.60;69.19;102627.50;5091407;28;20032;-83
2023/03/02 02:48:22;;;;;;;0.20;0.20;;;;;;;1.59;68.59;102612.66;5091973;28;20036;-83
2023/03/02 02:50:48;;;;;;;0.10;0.10;;;;;;;1.59;69.57;102619.63;5089551;28;20020;-81
2023/03/02 02:53:22;;;;;;;0.10;0.10;;;;;;;1.64;69.34;102615.50;5090535;28;20747;-82
2023/03/02 02:55:52;;;;;;;0.20;0.20;;;;;;;1.66;68.77;102616.47;5089286;28;20094;-83
2023/03/02 03:01:02;;;;;;;0.20;0.20;;;;;;;1.67;68.45;102601.66;5102594;27;1163708;-83
2023/03/02 03:03:33;;;;;;;0.20;0.20;;;;;;;1.69;69.07;102606.13;5131545;27;20269;-83
2023/03/02 03:06:02;;;;;;;0.10;0.10;;;;;;;1.69;68.89;102605.25;5116439;27;20020;-83
2023/03/02 03:11:22;;;;;;;0.10;0.10;;;;;;;1.66;69.03;102599.88;5052155;28;20934;-83
2023/03/02 03:14:11;;;;;;;0.10;0.10;;;;;;;1.66;68.60;102605.09;5051985;28;20029;-83
2023/03/02 03:16:40;;;;;;;0.20;0.20;;;;;;;1.63;69.54;102602.34;5049495;28;20052;-82
2023/03/02 03:19:18;;;;;;;0.20;0.20;;;;;;;1.67;69.35;102602.56;5049487;28;20091;-83
2023/03/02 03:21:47;;;;;;;0.20;0.20;;;;;;;1.63;68.95;102592.78;5045188;28;20024;-82
2023/03/02 03:24:13;;;;;;;0.20;0.20;;;;;;;1.64;69.11;102591.97;5049690;28;20029;-82
2023/03/02 03:26:39;;;;;;;1.95;1.65;;;;;;;1.65;69.36;102605.94;5050108;28;20029;-83
2023/03/02 03:29:09;;;;;;;0.20;0.20;;;;;;;1.65;69.06;102595.50;5051534;28;20122;-83
2023/03/02 03:31:35;;;;;;;0.20;0.20;;;;;;;1.66;69.82;102599.88;5046055;28;20041;-82
2023/03/02 03:34:02;;;;;;;0.20;0.20;;;;;;;1.65;69.34;102588.53;5048894;28;20032;-83
2023/03/02 03:36:29;;;;;;;0.13;0.13;;;;;;;1.66;69.23;102595.56;5048731;28;20519;-83
2023/03/02 03:38:57;;;;;;;0.40;0.40;;;;;;;1.66;69.13;102597.25;5050873;28;20092;-83
2023/03/02 03:41:23;;;;;;;0.20;0.20;;;;;;;1.65;68.71;102600.72;5041923;28;20029;-81
2023/03/02 03:43:50;;;;;;;0.20;0.20;;;;;;;1.66;68.96;102599.88;5032292;28;20032;-83
2023/03/02 03:46:17;;;;;;;0.20;0.20;;;;;;;1.67;69.44;102607.81;5032848;28;20041;-83
2023/03/02 03:48:43;;;;;;;0.20;0.20;;;;;;;1.67;69.25;102604.28;5037641;28;20025;-83
2023/03/02 03:51:09;;;;;;;1.75;0.93;;;;;;;1.66;69.59;102605.09;5031532;28;20116;-83
2023/03/02 03:53:36;;;;;;;0.20;0.20;;;;;;;1.66;69.27;102599.88;5031499;28;20456;-83
2023/03/02 03:56:02;;;;;;;0.35;0.35;;;;;;;1.65;69.66;102598.09;5041932;28;20032;-84
2023/03/02 03:58:30;;;;;;;0.20;0.20;;;;;;;1.63;69.52;102604.97;5031177;28;20029;-83
2023/03/02 04:00:57;;;;;;;0.20;0.20;;;;;;;1.60;69.80;102598.78;5031635;28;20018;-83
2023/03/02 04:03:24;;;;;;;0.20;0.20;;;;;;;1.60;69.13;102600.50;5031510;28;20033;-84
2023/03/02 04:05:50;;;;;;;0.20;0.20;;;;;;;1.58;69.29;102597.84;5032773;28;20492;-83
2023/03/02 04:08:17;;;;;;;0.17;0.17;;;;;;;1.58;69.43;102600.44;5031991;28;20034;-84
2023/03/02 04:10:43;;;;;;;0.20;0.20;;;;;;;1.56;69.21;102599.47;5031729;28;20037;-83
2023/03/02 04:13:10;;;;;;;0.28;0.28;;;;;;;1.54;69.42;102606.34;5030997;28;20083;-83
2023/03/02 04:15:37;;;;;;;0.25;0.25;;;;;;;1.53;69.20;102608.88;5030744;28;20504;-82
2023/03/02 04:18:03;;;;;;;0.20;0.20;;;;;;;1.53;69.99;102609.75;5030912;28;20059;-82
2023/03/02 04:20:30;;;;;;;0.30;0.30;;;;;;;1.52;69.47;102608.00;5030165;28;20113;-82
2023/03/02 04:22:57;;;;;;;0.20;0.20;;;;;;;1.52;69.78;102608.00;5017677;28;20033;-82
2023/03/02 04:25:26;;;;;;;0.20;0.20;;;;;;;1.53;69.66;102607.16;5017209;28;20493;-81
2023/03/02 04:27:53;;;;;;;0.20;0.20;;;;;;;1.51;69.79;102606.22;5017038;28;20029;-82
2023/03/02 04:30:23;;;;;;;0.40;0.40;;;;;;;1.51;69.60;102611.44;5017257;28;20041;-82
2023/03/02 04:32:49;;;;;;;0.10;0.10;;;;;;;1.48;69.61;102606.06;5017314;28;20033;-83
2023/03/02 04:35:15;;;;;;;0.15;0.15;;;;;;;1.47;69.63;102614.75;5017628;28;20064;-83
2023/03/02 04:37:42;;;;;;;0.88;0.88;;;;;;;1.45;69.29;102611.16;5029418;28;20033;-82
2023/03/02 04:40:11;;;;;;;0.60;0.60;;;;;;;1.45;69.31;102601.59;5038676;28;20159;-83
2023/03/02 04:42:37;;;;;;;3.72;3.20;;;;;;;1.44;69.72;102610.22;5045756;28;20026;-82
2023/03/02 04:45:03;;;;;;;0.20;0.20;;;;;;;1.42;69.87;102601.47;5039437;28;20021;-81
2023/03/02 04:47:29;;;;;;;0.20;0.20;;;;;;;1.42;69.89;102605.75;5047859;28;20032;-80
2023/03/02 04:49:56;;;;;;;0.10;0.10;;;;;;;1.40;70.17;102607.44;5042824;28;20033;-82
2023/03/02 04:52:23;;;;;;;0.20;0.20;;;;;;;1.39;70.19;102606.53;5045809;28;20082;-82
2023/03/02 04:54:50;;;;;;;0.40;0.40;;;;;;;1.38;69.90;102602.13;5046515;28;20025;-82
2023/03/02 04:57:16;;;;;;;2.47;1.15;;;;;;;1.38;69.80;102604.72;5047290;28;20041;-82
2023/03/02 04:59:42;;;;;;;0.20;0.20;;;;;;;1.37;70.04;102608.19;5047146;28;20049;-83
2023/03/02 05:02:09;;;;;;;0.20;0.20;;;;;;;1.37;70.02;102602.06;5041598;28;20029;-83
2023/03/02 05:04:35;;;;;;;0.63;0.63;;;;;;;1.35;69.85;102601.09;5039518;28;20101;-83
2023/03/02 05:07:01;;;;;;;0.22;0.22;;;;;;;1.33;69.87;102600.13;5038931;28;20037;-83
2023/03/02 05:09:29;;;;;;;0.20;0.20;;;;;;;1.32;69.54;102598.34;5037767;28;20037;-84
2023/03/02 05:11:57;;;;;;;0.20;0.20;;;;;;;1.31;69.86;102596.53;5038635;28;20025;-83
2023/03/02 05:14:25;;;;;;;0.10;0.10;;;;;;;1.29;69.91;102599.97;5037512;28;20033;-83
2023/03/02 05:16:51;;;;;;;0.60;0.60;;;;;;;1.28;70.29;102598.22;5037466;28;20084;-83
2023/03/02 05:19:17;;;;;;;0.20;0.20;;;;;;;1.27;70.22;102600.72;5037707;28;20052;-83
2023/03/02 05:21:44;;;;;;;0.20;0.20;;;;;;;1.25;70.00;102608.50;5037475;28;20500;-83
2023/03/02 05:24:11;;;;;;;0.15;0.15;;;;;;;1.23;70.34;102599.69;5036813;28;20116;-81
2023/03/02 05:26:38;;;;;;;0.20;0.20;;;;;;;1.20;70.51;102599.56;5037280;28;20459;-83
2023/03/02 05:29:04;;;;;;;0.20;0.20;;;;;;;1.19;69.81;102594.28;5036977;28;20022;-83
2023/03/02 05:31:34;;;;;;;0.20;0.20;;;;;;;1.16;69.63;102597.63;5036246;28;20497;-82
2023/03/02 05:34:02;;;;;;;0.10;0.10;;;;;;;1.13;69.69;102595.78;5035769;28;20036;-83
2023/03/02 05:36:29;;;;;;;0.40;0.40;;;;;;;1.11;69.90;102589.59;5023896;28;20463;-83
2023/03/02 05:38:55;;;;;;;1.27;1.20;;;;;;;1.10;69.42;102594.75;5036153;28;20056;-83
2023/03/02 05:41:21;;;;;;;0.20;0.20;;;;;;;1.09;69.77;102587.72;5035122;28;20468;-83
2023/03/02 05:43:47;;;;;;;0.85;0.85;;;;;;;1.08;69.89;102586.81;5034522;28;20029;-84
2023/03/02 05:46:13;;;;;;;0.20;0.20;;;;;;;1.08;70.15;102588.53;5036282;28;20033;-82
2023/03/02 05:48:41;;;;;;;0.20;0.20;;;;;;;1.07;70.06;102591.97;5036652;28;20123;-83
2023/03/02 05:51:07;;;;;;;4.57;1.38;;;;;;;1.07;70.02;102594.56;5036098;28;20079;-83
2023/03/02 05:53:33;;;;;;;1.00;0.90;;;;;;;1.05;69.81;102593.63;5036085;28;20037;-82
2023/03/02 05:55:59;;;;;;;0.20;0.20;;;;;;;1.05;70.31;102598.84;5037241;28;20032;-84
2023/03/02 05:58:25;;;;;;;0.20;0.20;;;;;;;1.02;70.56;102599.56;5037086;28;20554;-84
2023/03/02 06:00:51;;;;;;;0.20;0.20;;;;;;;1.02;70.21;102606.50;5036239;28;20043;-84
2023/03/02 06:03:18;;;;;;;0.52;0.52;;;;;;;1.01;71.18;102607.34;5037897;28;20025;-83
2023/03/02 06:05:44;;;;;;;0.25;0.25;;;;;;;1.01;70.41;102615.16;5038794;28;20040;-85
2023/03/02 06:08:10;;;;;;;0.20;0.20;;;;;;;1.01;70.23;102617.78;5033554;28;20573;-83
2023/03/02 06:10:36;;;;;;;0.20;0.20;;;;;;;1.02;70.29;102609.13;5028782;28;20033;-82
2023/03/02 06:13:02;;;;;;;0.20;0.20;;;;;;;1.04;70.13;102607.50;5025044;28;20038;-81
2023/03/02 06:15:29;;;;;;;0.20;0.20;;;;;;;1.05;69.48;102619.72;5027355;28;20025;-84
2023/03/02 06:17:56;;;;;;;0.20;0.20;;;;;;;1.04;69.90;102620.56;5033506;28;20022;-83
2023/03/02 06:20:22;;;;;;;1.02;0.95;;;;;;;1.05;69.71;102619.72;5036424;28;20049;-84
2023/03/02 06:22:48;;;;;;;0.20;0.20;;;;;;;1.05;70.04;102624.94;5029175;28;20053;-84
2023/03/02 06:25:18;;;;;;;0.10;0.10;;;;;;;1.05;69.98;102624.94;5026699;28;20033;-84
2023/03/02 06:27:45;;;;;;;0.68;0.68;;;;;;;1.04;70.01;102623.16;5026563;28;20029;-84
2023/03/02 06:30:14;;;;;;;0.20;0.20;;;;;;;1.04;69.89;102621.44;5031222;28;20566;-83
2023/03/02 06:32:41;;;;;;;0.63;0.63;;;;;;;1.01;70.03;102628.22;5028350;28;20080;-84
2023/03/02 06:35:08;;;;;;;0.20;0.20;;;;;;;1.00;70.12;102624.72;5030747;28;20152;-81
2023/03/02 06:37:34;;;;;;;0.10;0.10;;;;;;;1.01;69.89;102628.22;5031164;28;20389;-84
2023/03/02 06:40:00;;;;;;;0.75;0.75;;;;;;;1.01;69.46;102633.44;5026436;28;20022;-82
2023/03/02 06:42:27;;;;;;;0.20;0.20;;;;;;;1.00;69.96;102635.16;5027911;28;20397;-83
2023/03/02 06:44:54;;;;;;;0.20;0.20;;;;;;;1.01;69.66;102639.56;5030937;28;20572;-83
2023/03/02 06:47:21;;;;;;;0.20;0.20;;;;;;;1.03;70.27;102637.91;5034785;28;20036;-81
2023/03/02 06:49:48;;;;;;;0.10;0.10;;;;;;;1.03;69.75;102637.03;5029777;28;20041;-83
2023/03/02 06:52:14;;;;;;;0.20;0.20;;;;;;;1.03;70.19;102634.41;5029452;28;20106;-84
2023/03/02 06:54:40;;;;;;;0.77;0.77;;;;;;;1.04;70.06;102639.69;5031299;28;20041;-82
2023/03/02 06:57:07;;;;;;;0.20;0.20;;;;;;;1.05;70.41;102638.00;5028240;28;20029;-84
2023/03/02 06:59:34;;;;;;;0.10;0.10;;;;;;;1.08;70.36;102640.75;5032147;28;20024;-82
2023/03/02 07:02:00;;;;;;;3.35;1.65;;;;;;;1.09;69.79;102642.53;5029906;28;20021;-82
2023/03/02 07:04:27;;;;;;;1.13;1.13;;;;;;;1.09;70.24;102643.44;5032115;28;20033;-81
2023/03/02 07:06:54;;;;;;;0.15;0.15;;;;;;;1.10;70.57;102639.13;5029757;28;20051;-83
2023/03/02 07:09:20;;;;;;;0.15;0.15;;;;;;;1.11;70.14;102643.53;5025473;28;20041;-82
2023/03/02 07:11:47;;;;;;;0.20;0.20;;;;;;;1.13;70.69;102641.84;5028268;28;20124;-83
2023/03/02 07:14:13;;;;;;;0.20;0.20;;;;;;;1.16;70.40;102639.41;5029440;28;20515;-82
2023/03/02 07:16:39;;;;;;;0.80;0.63;;;;;;;1.20;70.51;102636.13;5031105;28;20385;-82
2023/03/02 07:19:05;;;;;;;0.10;0.10;;;;;;;1.24;70.33;102632.81;5031527;28;20025;-81
2023/03/02 07:21:31;;;;;;;0.10;0.10;;;;;;;1.27;70.50;102639.91;5029749;28;20030;-81
2023/03/02 07:23:57;;;;;;;0.10;0.10;;;;;;;1.32;70.22;102629.69;5029554;28;20021;-83
2023/03/02 07:26:23;;;;;;;1.08;1.08;;;;;;;1.36;70.76;102642.03;5027949;28;20085;-82
2023/03/02 07:28:49;;;;;;;0.73;0.73;;;;;;;1.41;70.61;102640.56;5030460;28;20029;-82
2023/03/02 07:31:15;;;;;;;0.20;0.20;;;;;;;1.44;71.17;102651.16;5020759;28;20061;-82
2023/03/02 07:33:41;;;;;;;0.10;0.10;;;;;;;1.49;70.97;102643.53;5030443;28;20037;-81
2023/03/02 07:36:08;;;;;;;0.20;0.20;;;;;;;1.54;70.83;102653.34;5029823;28;20022;-82
2023/03/02 07:38:35;;;;;;;0.20;0.20;;;;;;;1.59;70.80;102650.97;5027445;28;20237;-82
2023/03/02 07:41:06;;;;;;;0.25;0.25;;;;;;;1.66;70.79;102650.44;5030776;28;20064;-83
2023/03/02 07:43:34;;;;;;;0.20;0.20;;;;;;;1.68;71.18;102642.66;5027624;28;20037;-82
2023/03/02 07:46:00;;;;;;;1.38;0.93;;;;;;;1.72;70.81;102645.47;5030800;28;20067;-83
2023/03/02 07:48:26;;;;;;;0.20;0.20;;;;;;;1.76;71.18;102644.78;5028268;28;20021;-83
2023/03/02 07:50:58;;;;;;;0.10;0.10;;;;;;;1.84;70.65;102645.13;5029593;28;20566;-82
2023/03/02 07:53:24;;;;;;;0.47;0.47;;;;;;;1.85;71.27;102644.31;5028735;28;20025;-83
2023/03/02 07:55:50;;;;;;;0.10;0.10;;;;;;;1.87;70.86;102647.91;5033175;28;20032;-83
2023/03/02 07:58:17;;;;;;;0.30;0.30;;;;;;;1.92;70.92;102646.38;5038178;28;20037;-83
2023/03/02 08:00:43;;;;;;;0.20;0.20;;;;;;;1.99;70.57;102644.03;5033037;28;20037;-83
2023/03/02 08:03:09;;;;;;;0.10;0.10;;;;;;;2.02;70.74;102639.84;5035615;28;20072;-82
2023/03/02 08:05:35;;;;;;;0.10;0.10;;;;;;;2.06;70.74;102643.50;5033444;28;20021;-81
2023/03/02 08:08:01;;;;;;;0.10;0.10;;;;;;;2.10;70.40;102645.41;5033604;28;20061;-82
2023/03/02 08:10:27;;;;;;;0.30;0.30;;;;;;;2.16;70.59;102643.06;5033616;28;20029;-82
2023/03/02 08:12:53;;;;;;;0.10;0.10;;;;;;;2.19;71.16;102645.78;5033557;28;20033;-83
2023/03/02 08:15:19;;;;;;;0.70;0.70;;;;;;;2.26;70.87;102641.75;5034395;28;20026;-82
2023/03/02 08:17:45;;;;;;;1.85;1.55;;;;;;;2.32;70.86;102635.88;5032655;28;20026;-83
2023/03/02 08:20:11;;;;;;;0.10;0.10;;;;;;;2.39;70.66;102630.06;5032921;28;20030;-81
2023/03/02 08:22:37;;;;;;;0.10;0.10;;;;;;;2.43;71.11;102634.63;5031537;28;20053;-82
2023/03/02 08:25:04;;;;;;;0.20;0.20;;;;;;;2.47;71.27;102631.31;5032949;28;20033;-83
2023/03/02 08:27:30;;;;;;;0.10;0.10;;;;;;;2.54;71.06;102643.81;5030766;28;20036;-83
2023/03/02 08:29:56;;;;;;;0.20;0.20;;;;;;;2.59;71.40;102631.81;5032728;28;20025;-82
2023/03/02 08:32:22;;;;;;;0.20;0.20;;;;;;;2.65;71.35;102640.75;5034642;28;20033;-81
2023/03/02 08:34:50;;;;;;;0.10;0.10;;;;;;;2.72;70.90;102624.47;5028700;28;20433;-82
2023/03/02 08:37:17;;;;;;;0.20;0.20;;;;;;;2.77;70.84;102625.56;5032946;28;20060;-81
2023/03/02 08:39:44;;;;;;;0.10;0.10;;;;;;;2.84;71.43;102629.31;5034572;28;20022;-83
2023/03/02 08:42:10;;;;;;;0.80;0.57;;;;;;;2.90;70.93;102625.22;5047702;28;20014;-83
2023/03/02 08:44:36;;;;;;;1.77;1.65;;;;;;;2.97;71.33;102628.09;5032076;28;20051;-82
2023/03/02 08:47:02;;;;;;;0.10;0.10;;;;;;;3.06;70.98;102628.44;5030160;28;20064;-82
2023/03/02 08:49:28;;;;;;;0.10;0.10;;;;;;;3.09;70.99;102623.34;5034313;28;20489;-83
2023/03/02 08:51:55;;;;;;;1.13;0.68;;;;;;;3.19;69.80;102635.06;5044119;28;20010;-82
2023/03/02 08:54:21;;;;;;;0.20;0.20;;;;;;;3.28;69.53;102634.53;5037594;28;20037;-81
2023/03/02 08:56:48;;;;;;;0.38;0.38;;;;;;;3.37;69.46;102627.03;5037226;28;20034;-83
2023/03/02 08:59:15;;;;;;;0.10;0.10;;;;;;;3.49;69.73;102635.38;5037176;28;20034;-84
2023/03/02 09:01:41;;;;;;;1.75;0.93;;;;;;;3.56;69.96;102632.16;5036349;28;20417;-82
2023/03/02 09:04:09;;;;;;;1.33;1.33;;;;;;;3.69;70.29;102627.38;5029039;28;20032;-82
2023/03/02 09:06:39;;;;;;;1.27;1.20;;;;;;;3.80;69.44;102626.03;5032620;28;20064;-83
2023/03/02 09:09:07;;;;;;;0.13;0.13;;;;;;;3.88;69.25;102621.94;5028976;28;20035;-82
2023/03/02 09:11:33;;;;;;;0.20;0.20;;;;;;;3.98;69.45;102623.16;5037936;28;20068;-84
2023/03/02 09:14:00;;;;;;;0.15;0.15;;;;;;;4.09;69.16;102615.69;5036568;28;20135;-84
2023/03/02 09:16:26;;;;;;;0.10;0.10;;;;;;;4.20;69.05;102619.59;5031370;28;20086;-84
2023/03/02 09:18:53;;;;;;;0.10;0.10;;;;;;;4.30;68.06;102609.38;5035743;28;20039;-83
2023/03/02 09:21:20;;;;;;;0.15;0.15;;;;;;;4.40;67.75;102603.63;5032380;28;20030;-84
2023/03/02 09:23:46;;;;;;;1.05;1.00;;;;;;;4.50;68.25;102610.97;5032482;28;20029;-83
2023/03/02 09:26:12;;;;;;;0.20;0.20;;;;;;;4.60;68.12;102606.94;5022719;28;20060;-84
2023/03/02 09:28:38;;;;;;;0.10;0.10;;;;;;;4.70;67.82;102605.50;5035786;28;20032;-83
2023/03/02 09:31:07;;;;;;;0.10;0.10;;;;;;;4.79;67.44;102603.16;5032229;28;20486;-82
2023/03/02 09:33:33;;;;;;;0.70;0.70;;;;;;;4.91;67.42;102607.00;5035819;28;20099;-84
2023/03/02 09:36:00;;;;;;;0.20;0.20;;;;;;;4.99;67.07;102610.78;5033838;28;20025;-84
2023/03/02 09:38:26;;;;;;;5.72;1.45;;;;;;;5.12;67.01;102612.97;5022761;28;20036;-84
2023/03/02 09:46:36;;;;;;;0.73;0.40;;;;;;;5.56;66.53;102614.25;5051718;27;20367;-83
2023/03/02 09:49:42;;;;;;;0.65;0.65;;;;;;;5.70;65.54;102623.44;5046120;27;20809;-84
2023/03/02 09:55:13;;;;;;;0.20;0.20;;;;;;;5.89;65.44;102618.69;5101980;27;1198252;-82
2023/03/02 09:57:40;;;;;;;0.10;0.10;;;;;;;5.91;65.10;102620.53;5131989;28;20038;-84
2023/03/02 10:02:52;;;;;;;1.38;1.38;;;;;;;6.10;64.24;102614.03;5113754;27;20456;-84
2023/03/02 10:05:30;;;;;;;0.10;0.10;;;;;;;6.23;64.31;102612.66;5115838;28;20475;-83
2023/03/02 10:07:56;;;;;;;0.13;0.13;;;;;;;6.30;63.73;102608.44;5094802;28;20046;-84
2023/03/02 10:13:18;;;;;;;1.25;0.95;;;;;;;6.56;63.70;102592.41;5108444;27;20331;-83
2023/03/02 10:21:38;;;;;;;1.35;0.73;;;;;;;6.81;63.12;102599.16;5102903;27;1191430;-82
2023/03/02 10:24:44;;;;;;;0.32;0.32;;;;;;;6.97;63.52;102600.41;5113501;27;20035;-83
2023/03/02 10:27:40;;;;;;;0.15;0.15;;;;;;;7.03;62.82;102600.56;5098495;28;20032;-82
2023/03/02 10:32:58;;;;;;;0.10;0.10;;;;;;;7.17;62.58;102586.81;5094974;27;1174888;-84
2023/03/02 10:35:27;;;;;;;4.28;1.45;;;;;;;7.22;61.69;102588.66;5129339;28;20020;-84
2023/03/02 10:38:15;;;;;;;1.23;1.02;;;;;;;7.37;61.28;102585.47;5132264;28;20027;-86
2023/03/02 10:40:46;;;;;;;0.22;0.22;;;;;;;7.41;61.38;102586.44;5131825;28;20394;-84
2023/03/02 10:43:19;;;;;;;0.10;0.10;;;;;;;7.51;61.79;102582.25;5131433;28;20023;-84
2023/03/02 10:45:56;;;;;;;;;;;;;;;7.66;59.22;102572.00;5134427;28;20032;-83
2023/03/02 10:48:23;;;;;;;0.10;0.10;;;;;;;7.60;60.20;102574.50;5134550;28;20385;-85
2023/03/02 10:50:54;;;;;;;0.10;0.10;;;;;;;7.70;61.00;102578.22;5132565;28;20024;-85
2023/03/02 10:53:20;;;;;;;1.08;1.02;;;;;;;7.77;60.81;102567.81;5132949;28;20073;-84
2023/03/02 10:55:49;;;;;;;0.20;0.20;;;;;;;7.84;59.21;102567.94;5131202;28;20473;-84
2023/03/02 11:03:34;;;;;;;0.10;0.10;;;;;;;8.06;59.47;102567.50;5071173;27;1872376;-82
2023/03/02 11:06:19;;;;;;;0.10;0.10;;;;;;;8.24;58.83;102560.75;5127057;28;20058;-83
2023/03/02 11:08:56;;;;;;;0.88;0.88;;;;;;;8.32;59.63;102564.41;5121014;28;20560;-82
2023/03/02 11:11:23;;;;;;;2.65;0.73;;;;;;;8.47;59.32;102562.94;5128920;28;20118;-83
2023/03/02 11:13:49;;;;;;;0.30;0.30;;;;;;;8.57;58.53;102557.84;5126147;28;20024;-81
2023/03/02 11:18:58;;;;;;;0.43;0.43;;;;;;;8.82;58.40;102570.53;5094400;27;20384;-83
2023/03/02 11:21:50;;;;;;;0.17;0.17;;;;;;;8.91;57.67;102562.75;5087901;28;20031;-83
2023/03/02 11:24:27;;;;;;;0.20;0.20;;;;;;;8.97;57.74;102560.19;5082316;28;20032;-83
2023/03/02 11:26:58;;;;;;;0.10;0.10;;;;;;;9.04;56.96;102558.50;5087212;28;20081;-83
2023/03/02 11:32:21;;;;;;;0.17;0.17;;;;;;;9.21;57.43;102556.09;5116462;27;1167686;-84
2023/03/02 11:35:21;;;;;;;0.10;0.10;;;;;;;9.37;56.88;102554.53;5127123;27;20161;-85
2023/03/02 11:37:51;;;;;;;0.10;0.10;;;;;;;9.42;56.53;102551.94;5111861;28;20039;-84
2023/03/02 11:42:58;;;;;;;0.10;0.10;;;;;;;9.61;56.88;102551.28;5101873;27;20398;-84
2023/03/02 11:45:29;;;;;;;0.10;0.10;;;;;;;9.68;56.03;102554.88;5085633;28;20035;-84
2023/03/02 11:50:52;;;;;;;0.10;0.10;;;;;;;9.81;55.82;102555.94;5099287;27;1191455;-83
2023/03/02 11:53:20;;;;;;;0.60;0.60;;;;;;;9.88;54.04;102547.16;5110742;28;20035;-83
2023/03/02 11:55:49;;;;;;;0.10;0.10;;;;;;;9.96;53.96;102545.47;5109879;28;20032;-81
2023/03/02 11:58:20;;;;;;;1.98;1.88;;;;;;;10.00;55.10;102547.28;5114278;27;20038;-83
2023/03/02 12:00:48;;;;;;;0.43;0.43;;;;;;;10.08;54.83;102538.53;5110199;27;20023;-83
2023/03/02 12:11:25;;;;;;;0.40;0.40;;;;;;;10.16;54.31;102536.84;5056707;27;1177471;-84
2023/03/02 12:16:39;;;;;;;1.00;1.00;;;;;;;10.49;53.33;102535.38;5049258;27;1849963;-84
2023/03/02 12:19:26;;;;;;;1.55;0.90;;;;;;;10.62;53.70;102525.75;5084073;28;20460;-84
2023/03/02 12:21:58;;;;;;;0.10;0.10;;;;;;;10.68;53.58;102531.09;5082173;28;20100;-83
2023/03/02 12:24:43;;;;;;;0.30;0.30;;;;;;;10.82;52.90;102525.88;5092920;28;20016;-84
2023/03/02 12:29:50;;;;;;;1.38;0.80;;;;;;;10.85;51.24;102523.25;5122838;27;20607;-82
2023/03/02 12:35:12;;;;;;;0.30;0.30;;;;;;;10.90;50.33;102524.16;5067162;27;1170849;-81
2023/03/02 12:40:47;;;;;;;0.65;0.65;;;;;;;11.04;50.37;102511.00;5125763;27;20359;-81
2023/03/02 12:43:29;;;;;;;0.20;0.20;;;;;;;11.12;49.85;102513.66;5092209;28;20059;-84
2023/03/02 12:46:26;;;;;;;0.10;0.10;;;;;;;11.23;50.14;102509.28;5068567;28;20052;-84
2023/03/02 12:54:32;;;;;;;0.17;0.17;;;;;;;11.49;49.41;102489.94;5111666;27;20358;-83
2023/03/02 12:57:17;;;;;;;0.32;0.32;;;;;;;11.62;49.38;102486.38;5091560;28;20426;-83
2023/03/02 12:59:51;;;;;;;0.35;0.35;;;;;;;11.63;47.97;102493.47;5092494;28;20115;-84